Time;durP1;ratioP1;P1;durP2;ratioP2;P2;SDS_P1;SDS_P2;PMS_P1;PMS_P2;Temp;Humidity;BMP_temperature;BMP_pressure;BME280_temperature;BME280_humidity;BME280_pressure;Samples;Min_cycle;Max_cycle;Signal;HPM_P1;HPM_P2
2022/06/19 02:57:10;;;;;;;9.70;2.38;;;19.20;59.70;;;;;;4707489;30;20121;-72
2022/06/19 02:59:36;;;;;;;8.27;1.85;;;19.20;60.20;;;;;;4719074;30;20065;-74
2022/06/19 03:02:02;;;;;;;11.20;2.30;;;19.20;60.40;;;;;;4718572;30;20083;-73
2022/06/19 03:04:33;;;;;;;9.73;1.98;;;19.20;60.50;;;;;;4719428;30;20098;-73
2022/06/19 03:06:58;;;;;;;9.63;2.53;;;19.30;60.80;;;;;;4719056;30;20049;-73
2022/06/19 03:09:24;;;;;;;11.32;1.98;;;19.40;60.90;;;;;;4718092;30;20067;-71
2022/06/19 03:11:50;;;;;;;10.38;2.47;;;19.40;60.90;;;;;;4718860;30;20088;-72
2022/06/19 03:14:16;;;;;;;12.18;2.55;;;19.40;61.00;;;;;;4719061;30;20092;-74
2022/06/19 03:16:42;;;;;;;9.13;1.88;;;19.50;61.10;;;;;;4718432;30;20092;-74
2022/06/19 03:19:08;;;;;;;9.18;1.98;;;19.50;61.10;;;;;;4719274;30;20089;-73
2022/06/19 03:21:34;;;;;;;10.23;1.95;;;19.50;61.10;;;;;;4719123;30;20061;-73
2022/06/19 03:24:00;;;;;;;8.23;2.40;;;19.60;61.30;;;;;;4718909;30;20057;-73
2022/06/19 03:26:30;;;;;;;11.45;2.30;;;19.60;61.50;;;;;;4718882;30;20049;-72
2022/06/19 03:28:56;;;;;;;10.68;2.20;;;19.60;61.70;;;;;;4718784;30;20053;-74
2022/06/19 03:31:24;;;;;;;10.02;2.40;;;19.70;61.70;;;;;;4714852;30;20045;-72
2022/06/19 03:33:50;;;;;;;13.10;1.95;;;19.70;61.80;;;;;;4715593;30;20065;-74
2022/06/19 03:36:16;;;;;;;9.52;1.88;;;19.80;61.80;;;;;;4714625;30;20060;-78
2022/06/19 03:38:42;;;;;;;16.20;2.08;;;19.80;61.80;;;;;;4700860;30;20069;-74
2022/06/19 03:41:08;;;;;;;14.63;2.22;;;19.80;61.90;;;;;;4701712;30;20049;-73
2022/06/19 03:43:35;;;;;;;12.73;2.08;;;19.90;62.10;;;;;;4702101;30;20053;-74
2022/06/19 03:46:14;;;;;;;14.90;2.75;;;19.90;62.10;;;;;;4701570;30;20062;-75
2022/06/19 03:48:43;;;;;;;12.07;2.28;;;19.90;62.10;;;;;;4707537;30;20049;-74
2022/06/19 03:51:09;;;;;;;13.93;2.85;;;19.90;61.90;;;;;;4718308;30;20096;-73
2022/06/19 03:53:35;;;;;;;9.98;1.88;;;19.80;61.90;;;;;;4719085;30;20068;-72
2022/06/19 03:56:01;;;;;;;10.32;1.60;;;19.90;61.90;;;;;;4717761;30;20053;-74
2022/06/19 03:58:45;;;;;;;14.32;2.53;;;19.80;61.80;;;;;;4719477;30;20140;-75
2022/06/19 04:01:16;;;;;;;9.25;1.90;;;19.80;61.90;;;;;;4718231;30;20101;-74
2022/06/19 04:03:43;;;;;;;11.25;1.85;;;19.80;61.90;;;;;;4718377;30;20053;-75
2022/06/19 04:06:13;;;;;;;11.57;1.90;;;19.80;62.00;;;;;;4718647;30;20106;-76
2022/06/19 04:08:41;;;;;;;11.60;2.17;;;19.80;62.00;;;;;;4718610;30;20519;-74
2022/06/19 04:11:08;;;;;;;9.38;1.88;;;19.70;62.00;;;;;;4718797;30;20084;-75
2022/06/19 04:13:34;;;;;;;9.13;1.83;;;19.70;62.10;;;;;;4720991;30;20061;-76
2022/06/19 04:16:02;;;;;;;6.82;1.67;;;19.70;62.10;;;;;;4722117;30;20065;-73
2022/06/19 04:18:29;;;;;;;8.07;1.83;;;19.60;62.20;;;;;;4721730;30;20065;-74
2022/06/19 04:20:59;;;;;;;11.13;2.70;;;19.60;62.20;;;;;;4713158;30;20049;-74
2022/06/19 04:23:28;;;;;;;7.82;1.73;;;19.60;62.30;;;;;;4704106;30;20512;-74
2022/06/19 04:25:54;;;;;;;8.38;1.90;;;19.60;62.40;;;;;;4704439;30;20478;-75
2022/06/19 04:28:24;;;;;;;8.30;2.28;;;19.60;62.40;;;;;;4704472;30;20057;-75
2022/06/19 04:30:51;;;;;;;7.97;1.77;;;19.60;63.10;;;;;;4704403;30;20454;-74
2022/06/19 04:33:18;;;;;;;7.03;1.80;;;19.50;62.40;;;;;;4703136;30;20144;-75
2022/06/19 04:35:46;;;;;;;9.02;1.83;;;19.50;62.40;;;;;;4704058;30;20057;-76
2022/06/19 04:38:12;;;;;;;7.93;1.77;;;19.50;62.40;;;;;;4711953;30;20124;-74
2022/06/19 04:40:38;;;;;;;11.02;2.17;;;19.50;62.50;;;;;;4721368;30;20145;-74
2022/06/19 04:43:04;;;;;;;8.20;1.48;;;19.50;62.50;;;;;;4721279;30;20458;-75
2022/06/19 04:45:31;;;;;;;8.48;1.85;;;19.50;62.60;;;;;;4721025;30;20053;-73
2022/06/19 04:47:57;;;;;;;7.35;1.27;;;19.50;62.50;;;;;;4720511;30;20092;-74
2022/06/19 04:50:23;;;;;;;11.25;2.10;;;19.50;62.50;;;;;;4721542;30;20079;-74
2022/06/19 04:52:49;;;;;;;9.38;1.70;;;19.50;62.40;;;;;;4719343;30;20045;-74
2022/06/19 04:55:16;;;;;;;8.85;1.55;;;19.50;62.50;;;;;;4720964;30;20057;-73
2022/06/19 04:57:42;;;;;;;12.02;1.40;;;19.50;62.60;;;;;;4723254;30;20064;-74
2022/06/19 05:00:11;;;;;;;8.18;1.70;;;19.50;62.70;;;;;;4720433;30;20462;-73
2022/06/19 05:02:38;;;;;;;8.45;1.38;;;19.50;62.60;;;;;;4721907;30;20144;-73
2022/06/19 05:05:05;;;;;;;7.63;1.42;;;19.60;62.80;;;;;;4721649;30;20061;-75
2022/06/19 05:07:32;;;;;;;10.00;1.73;;;19.60;62.80;;;;;;4738897;30;20072;-74
2022/06/19 05:09:58;;;;;;;7.93;1.65;;;19.60;62.80;;;;;;4714439;30;20049;-73
2022/06/19 05:12:24;;;;;;;8.05;1.42;;;19.60;62.80;;;;;;4721032;30;20064;-73
2022/06/19 05:14:50;;;;;;;4.68;1.23;;;19.70;62.80;;;;;;4721586;30;20126;-73
2022/06/19 05:17:16;;;;;;;15.80;1.55;;;19.70;62.80;;;;;;4720457;30;20053;-72
2022/06/19 05:19:42;;;;;;;12.45;2.00;;;19.70;63.00;;;;;;4721122;30;20053;-78
2022/06/19 05:22:08;;;;;;;12.00;1.75;;;19.70;63.20;;;;;;4718258;30;20487;-81
2022/06/19 05:24:35;;;;;;;8.55;1.63;;;19.70;63.30;;;;;;4719037;30;20053;-75
2022/06/19 05:27:04;;;;;;;13.50;1.98;;;19.80;63.70;;;;;;4720117;30;20166;-83
2022/06/19 05:29:32;;;;;;;10.68;2.22;;;19.80;63.90;;;;;;4720369;30;20049;-84
2022/06/19 05:31:58;;;;;;;16.63;1.95;;;19.80;64.10;;;;;;4719097;30;20049;-81
2022/06/19 05:34:27;;;;;;;11.65;2.00;;;19.80;64.30;;;;;;4719475;30;20045;-84
2022/06/19 05:36:56;;;;;;;11.30;1.70;;;19.80;64.20;;;;;;4720207;30;20132;-79
2022/06/19 05:39:21;;;;;;;12.48;2.10;;;19.80;64.10;;;;;;4719366;30;20136;-82
2022/06/19 05:41:47;;;;;;;7.18;1.42;;;19.80;64.20;;;;;;4719321;30;20136;-85
2022/06/19 05:44:14;;;;;;;9.93;1.80;;;19.80;64.30;;;;;;4705071;30;20041;-84
2022/06/19 05:46:41;;;;;;;10.35;1.70;;;19.90;64.40;;;;;;4705150;30;20484;-78
2022/06/19 05:49:07;;;;;;;10.05;1.23;;;19.80;64.40;;;;;;4720288;30;20045;-77
2022/06/19 05:51:34;;;;;;;10.48;1.63;;;19.90;63.90;;;;;;4704263;30;20053;-76
2022/06/19 05:54:00;;;;;;;10.00;1.48;;;19.90;63.10;;;;;;4687653;30;20064;-77
2022/06/19 05:56:27;;;;;;;13.90;1.25;;;19.80;62.90;;;;;;4702533;30;20135;-77
2022/06/19 05:58:54;;;;;;;6.20;1.10;;;19.70;62.90;;;;;;4702141;30;20068;-75
2022/06/19 06:01:21;;;;;;;9.82;1.25;;;19.60;62.90;;;;;;4704672;30;20049;-77
2022/06/19 06:03:47;;;;;;;7.15;1.00;;;19.60;62.90;;;;;;4720177;30;20083;-75
2022/06/19 06:06:18;;;;;;;11.77;1.52;;;19.60;63.00;;;;;;4720168;30;20056;-75
2022/06/19 06:08:44;;;;;;;6.30;0.80;;;19.50;63.00;;;;;;4718877;30;20053;-75
2022/06/19 06:11:11;;;;;;;7.80;1.08;;;19.50;63.10;;;;;;4719936;30;20407;-78
2022/06/19 06:13:37;;;;;;;7.40;1.20;;;19.50;63.10;;;;;;4704386;30;20084;-77
2022/06/19 06:16:03;;;;;;;8.73;1.73;;;19.50;63.20;;;;;;4702279;30;20140;-75
2022/06/19 06:18:29;;;;;;;8.32;1.60;;;19.40;63.10;;;;;;4718520;30;20153;-76
2022/06/19 06:20:57;;;;;;;13.07;1.52;;;19.40;63.10;;;;;;4719958;30;20065;-74
2022/06/19 06:23:24;;;;;;;8.95;1.70;;;19.40;63.10;;;;;;4720059;30;20100;-74
2022/06/19 06:25:58;;;;;;;5.00;1.25;;;19.40;63.30;;;;;;4709968;30;20045;-74
2022/06/19 06:28:24;;;;;;;7.22;1.00;;;19.40;63.20;;;;;;4719111;30;20049;-74
2022/06/19 06:30:50;;;;;;;11.70;1.38;;;19.40;63.20;;;;;;4719635;30;20422;-75
2022/06/19 06:33:15;;;;;;;7.07;1.25;;;19.40;63.20;;;;;;4719045;30;20061;-73
2022/06/19 06:35:41;;;;;;;18.98;1.73;;;19.50;63.30;;;;;;4719455;30;20068;-74
2022/06/19 06:38:07;;;;;;;10.73;1.08;;;19.50;63.30;;;;;;4719779;30;20113;-75
2022/06/19 06:40:32;;;;;;;11.10;1.70;;;19.50;63.30;;;;;;4718964;30;20053;-74
2022/06/19 06:42:58;;;;;;;12.95;1.65;;;19.50;63.30;;;;;;4719697;30;20087;-75
2022/06/19 06:45:24;;;;;;;12.88;2.03;;;19.50;63.40;;;;;;4719471;30;20056;-75
2022/06/19 06:47:50;;;;;;;7.35;1.88;;;19.50;63.40;;;;;;4719278;30;20071;-73
2022/06/19 06:50:16;;;;;;;10.18;1.40;;;19.50;63.40;;;;;;4719600;30;20052;-74
2022/06/19 06:52:42;;;;;;;6.25;1.00;;;19.50;63.20;;;;;;4719340;30;20057;-73
2022/06/19 06:55:09;;;;;;;11.73;1.75;;;19.50;63.10;;;;;;4719156;30;20462;-74
2022/06/19 06:57:35;;;;;;;11.73;1.40;;;19.60;63.10;;;;;;4718943;30;20478;-75
2022/06/19 07:00:01;;;;;;;9.45;1.63;;;19.60;62.80;;;;;;4719617;30;20095;-74
2022/06/19 07:02:26;;;;;;;8.73;1.48;;;19.50;62.20;;;;;;4718249;30;20373;-73
2022/06/19 07:04:52;;;;;;;7.88;1.20;;;19.50;61.90;;;;;;4718831;30;20049;-75
2022/06/19 07:07:18;;;;;;;7.43;1.30;;;19.50;62.00;;;;;;4719399;30;20116;-73
2022/06/19 07:09:43;;;;;;;7.15;1.23;;;19.50;62.10;;;;;;4719368;30;20053;-74
2022/06/19 07:12:10;;;;;;;6.40;1.20;;;19.50;62.20;;;;;;4719128;30;20061;-73
2022/06/19 07:14:36;;;;;;;10.77;1.25;;;19.50;62.20;;;;;;4719013;30;20051;-75
2022/06/19 07:17:02;;;;;;;6.75;1.27;;;19.60;62.20;;;;;;4719216;30;20045;-73
2022/06/19 07:19:28;;;;;;;6.05;1.40;;;19.60;62.20;;;;;;4719025;30;20053;-76
2022/06/19 07:21:54;;;;;;;10.15;1.50;;;19.60;62.10;;;;;;4720193;30;20045;-74
2022/06/19 07:24:19;;;;;;;7.68;1.45;;;19.60;62.30;;;;;;4719264;30;20052;-74
2022/06/19 07:26:45;;;;;;;10.60;1.60;;;19.60;62.30;;;;;;4718619;30;20060;-74
2022/06/19 07:29:11;;;;;;;14.27;1.60;;;19.60;62.40;;;;;;4719357;30;20119;-72
2022/06/19 07:31:37;;;;;;;13.48;1.50;;;19.60;62.70;;;;;;4717630;30;20061;-78
2022/06/19 07:34:04;;;;;;;7.95;0.77;;;19.60;62.60;;;;;;4719169;30;20057;-75
2022/06/19 07:36:31;;;;;;;9.35;1.58;;;19.60;62.70;;;;;;4718856;30;20053;-73
2022/06/19 07:38:56;;;;;;;7.15;1.60;;;19.70;62.90;;;;;;4718840;30;20091;-72
2022/06/19 07:41:22;;;;;;;10.45;1.15;;;19.60;62.60;;;;;;4715911;30;20057;-73
2022/06/19 07:43:50;;;;;;;7.10;1.30;;;19.60;62.30;;;;;;4717085;30;20436;-75
2022/06/19 07:46:17;;;;;;;6.35;1.25;;;19.60;62.30;;;;;;4718585;30;20134;-75
2022/06/19 07:51:29;;;;;;;8.30;1.02;;;19.40;62.40;;;;;;4722502;30;20136;-74
2022/06/19 07:53:54;;;;;;;4.68;0.90;;;19.40;62.50;;;;;;4722554;30;20136;-74
2022/06/19 07:56:20;;;;;;;6.90;1.00;;;19.40;62.50;;;;;;4706690;30;20465;-75
2022/06/19 07:58:47;;;;;;;5.63;1.23;;;19.30;62.60;;;;;;4722070;30;20057;-75
2022/06/19 08:01:12;;;;;;;4.40;0.85;;;19.30;62.60;;;;;;4722510;30;20089;-73
2022/06/19 08:03:38;;;;;;;6.13;0.93;;;19.30;62.50;;;;;;4722163;30;20087;-74
2022/06/19 08:06:04;;;;;;;3.70;0.82;;;19.30;62.40;;;;;;4722288;30;20064;-76
2022/06/19 08:08:32;;;;;;;6.20;1.55;;;19.30;62.30;;;;;;4721946;30;20105;-75
2022/06/19 08:11:01;;;;;;;4.05;0.95;;;19.30;62.40;;;;;;4721757;30;20497;-75
2022/06/19 08:13:31;;;;;;;10.52;1.20;;;19.20;62.20;;;;;;4706786;30;20130;-77
2022/06/19 08:16:00;;;;;;;5.65;1.17;;;19.20;62.60;;;;;;4722146;30;20057;-76
2022/06/19 08:18:26;;;;;;;8.15;0.82;;;19.20;62.50;;;;;;4706678;30;20163;-76
2022/06/19 08:20:52;;;;;;;3.28;1.00;;;19.20;62.50;;;;;;4721997;30;20090;-77
2022/06/19 08:23:19;;;;;;;3.95;1.05;;;19.20;62.50;;;;;;4721764;30;20104;-76
2022/06/19 08:25:47;;;;;;;7.20;1.48;;;19.20;62.80;;;;;;4721226;30;20122;-77
2022/06/19 08:28:15;;;;;;;3.30;0.93;;;19.10;62.70;;;;;;4721889;30;20057;-77
2022/06/19 08:30:42;;;;;;;3.70;0.85;;;19.10;62.60;;;;;;4721972;30;20366;-77
2022/06/19 08:33:09;;;;;;;2.80;0.73;;;19.10;62.50;;;;;;4722386;30;20071;-76
2022/06/19 08:35:45;;;;;;;7.10;1.13;;;19.10;62.50;;;;;;4721680;30;20053;-77
2022/06/19 08:38:19;;;;;;;3.63;0.68;;;19.00;62.50;;;;;;4720625;30;20059;-77
2022/06/19 08:40:44;;;;;;;;;;;19.00;62.60;;;;;;4721893;30;20457;-75
2022/06/19 08:43:19;;;;;;;4.75;0.60;;;19.00;62.70;;;;;;4721633;30;19963;-74
2022/06/19 08:46:03;;;;;;;3.42;0.63;;;19.00;62.80;;;;;;4721634;30;20112;-75
2022/06/19 08:49:20;;;;;;;3.58;0.57;;;19.00;62.70;;;;;;4721325;30;20053;-75
2022/06/19 08:52:04;;;;;;;5.72;0.85;;;19.00;62.70;;;;;;4702054;30;20065;-75
2022/06/19 08:54:53;;;;;;;38.90;3.30;;;19.00;62.90;;;;;;4721238;30;20053;-77
2022/06/19 08:57:28;;;;;;;11.55;1.52;;;19.00;63.00;;;;;;4721441;30;20073;-77
2022/06/19 08:59:54;;;;;;;8.05;1.20;;;19.10;63.10;;;;;;4720138;30;20061;-78
2022/06/19 09:02:37;;;;;;;13.35;1.27;;;19.10;63.30;;;;;;4721401;30;20450;-78
2022/06/19 09:05:44;;;;;;;10.68;1.13;;;19.20;63.30;;;;;;4721098;30;20060;-76
2022/06/19 09:08:38;;;;;;;9.07;1.15;;;19.20;63.90;;;;;;4720907;30;20378;-78
2022/06/19 09:11:28;;;;;;;12.23;0.90;;;19.30;63.40;;;;;;4720738;30;20092;-77
2022/06/19 09:14:31;;;;;;;9.35;1.27;;;19.30;63.40;;;;;;4720947;30;20057;-79
2022/06/19 09:17:11;;;;;;;12.00;1.60;;;19.40;63.50;;;;;;4715021;30;20049;-78
2022/06/19 09:19:55;;;;;;;15.85;1.20;;;19.40;63.80;;;;;;4703889;30;20479;-77
2022/06/19 09:22:43;;;;;;;17.00;1.55;;;19.40;63.90;;;;;;4716972;30;20057;-79
2022/06/19 09:25:14;;;;;;;11.68;1.33;;;19.40;64.40;;;;;;4703588;30;20095;-80
2022/06/19 09:28:05;;;;;;;11.55;1.73;;;19.50;64.50;;;;;;4697456;30;20068;-78
2022/06/19 09:30:42;;;;;;;14.38;1.48;;;19.50;64.60;;;;;;4720650;30;20065;-73
2022/06/19 09:33:51;;;;;;;7.75;1.33;;;19.60;65.00;;;;;;4720925;30;20053;-75
2022/06/19 09:36:38;;;;;;;11.00;1.20;;;19.60;64.70;;;;;;4710830;30;20057;-77
2022/06/19 09:39:15;;;;;;;8.52;1.20;;;19.60;65.00;;;;;;4703531;30;20073;-78
2022/06/19 09:41:50;;;;;;;8.60;1.25;;;19.70;64.80;;;;;;4703854;30;20362;-79
2022/06/19 09:44:32;;;;;;;8.80;1.45;;;19.70;64.50;;;;;;4702573;30;20363;-78
2022/06/19 09:47:24;;;;;;;8.40;0.85;;;19.70;64.40;;;;;;4706812;30;20049;-79
2022/06/19 09:49:59;;;;;;;9.75;1.23;;;19.70;62.80;;;;;;4717781;30;20065;-74
2022/06/19 09:52:57;;;;;;;6.78;0.88;;;19.70;63.90;;;;;;4720625;30;20061;-74
2022/06/19 09:55:30;;;;;;;5.97;1.00;;;19.70;64.00;;;;;;4704591;30;20096;-76
2022/06/19 09:58:22;;;;;;;9.07;0.73;;;19.70;64.10;;;;;;4709371;30;20088;-73
2022/06/19 10:00:50;;;;;;;6.35;1.00;;;19.80;64.00;;;;;;4702860;30;20049;-75
2022/06/19 10:03:27;;;;;;;6.13;1.08;;;19.80;64.20;;;;;;4718240;30;20369;-75
2022/06/19 10:06:12;;;;;;;7.43;0.98;;;19.80;64.40;;;;;;4718967;30;20053;-74
2022/06/19 10:08:49;;;;;;;18.48;2.00;;;19.90;64.40;;;;;;4705106;30;20496;-76
2022/06/19 10:11:23;;;;;;;14.23;1.60;;;19.90;64.50;;;;;;4718175;30;20385;-79
2022/06/19 10:13:51;;;;;;;14.00;2.47;;;19.90;64.60;;;;;;4715605;30;20045;-78
2022/06/19 10:16:44;;;;;;;17.00;1.70;;;19.90;64.50;;;;;;4687269;30;20132;-83
2022/06/19 10:19:25;;;;;;;11.15;1.23;;;19.90;64.50;;;;;;4687305;30;20068;-82
2022/06/19 10:22:13;;;;;;;7.45;1.38;;;19.90;64.50;;;;;;4706384;30;20082;-81
2022/06/19 10:25:04;;;;;;;12.05;1.20;;;19.90;64.50;;;;;;4719988;30;20105;-82
2022/06/19 10:28:08;;;;;;;10.77;1.67;;;20.00;64.40;;;;;;4701888;30;20060;-83
2022/06/19 10:31:03;;;;;;;8.05;1.30;;;20.00;64.40;;;;;;4720093;30;20122;-82
2022/06/19 10:33:29;;;;;;;8.23;1.08;;;20.00;64.40;;;;;;4703397;30;20089;-81
2022/06/19 10:36:24;;;;;;;9.55;1.50;;;20.00;64.40;;;;;;4701205;30;20092;-83
2022/06/19 10:39:08;;;;;;;8.57;0.90;;;20.00;64.40;;;;;;4715736;30;20131;-80
2022/06/19 10:42:03;;;;;;;7.55;1.08;;;20.00;64.30;;;;;;4702883;30;20061;-82
2022/06/19 10:44:40;;;;;;;5.45;0.70;;;20.10;64.40;;;;;;4704203;30;20357;-80
2022/06/19 10:47:20;;;;;;;3.17;0.73;;;20.10;63.70;;;;;;4718543;30;20056;-81
2022/06/19 10:50:07;;;;;;;4.53;0.77;;;20.00;62.20;;;;;;4704334;30;20092;-84
2022/06/19 10:52:54;;;;;;;6.22;1.63;;;20.00;61.40;;;;;;4710422;30;20481;-82
2022/06/19 10:55:31;;;;;;;5.47;1.02;;;20.00;61.00;;;;;;4701990;30;20049;-80
2022/06/19 10:58:11;;;;;;;3.55;0.93;;;19.90;60.60;;;;;;4715160;30;20061;-82
2022/06/19 11:00:37;;;;;;;5.13;0.77;;;19.90;60.40;;;;;;4716755;30;20390;-78
2022/06/19 11:06:28;;;;;;;6.38;1.20;;;19.90;60.90;;;;;;4715255;30;20469;-82
2022/06/19 11:08:59;;;;;;;6.82;1.25;;;19.90;60.60;;;;;;4711734;30;20053;-81
2022/06/19 11:11:26;;;;;;;3.88;0.70;;;19.90;60.70;;;;;;4721221;30;20115;-79
2022/06/19 11:14:07;;;;;;;5.55;0.60;;;19.90;60.60;;;;;;4720420;30;20049;-77
2022/06/19 11:16:51;;;;;;;6.53;0.60;;;19.90;60.80;;;;;;4736305;30;20465;-76
2022/06/19 11:19:46;;;;;;;4.68;0.80;;;19.90;60.90;;;;;;4701655;30;20049;-78
2022/06/19 11:22:24;;;;;;;9.73;1.52;;;20.00;61.10;;;;;;4702374;30;20088;-76
2022/06/19 11:24:51;;;;;;;3.78;0.88;;;20.00;61.30;;;;;;4707137;30;20136;-78
2022/06/19 11:27:20;;;;;;;6.53;0.80;;;20.00;61.30;;;;;;4707708;30;20057;-78
2022/06/19 11:29:49;;;;;;;5.38;0.85;;;20.00;61.40;;;;;;4722861;30;20048;-77
2022/06/19 11:32:18;;;;;;;3.65;0.75;;;20.10;61.60;;;;;;4723357;30;20057;-77
2022/06/19 11:35:02;;;;;;;4.43;0.80;;;20.00;61.60;;;;;;4722551;30;20369;-79
2022/06/19 11:37:33;;;;;;;2.72;0.75;;;20.10;61.30;;;;;;4722535;30;20061;-78
2022/06/19 11:39:58;;;;;;;3.72;0.75;;;20.00;61.10;;;;;;4707106;30;20053;-76
2022/06/19 11:42:59;;;;;;;5.75;0.70;;;20.00;61.20;;;;;;4722626;30;20065;-76
2022/06/19 11:45:29;;;;;;;3.20;0.93;;;20.00;61.80;;;;;;4709003;30;20389;-75
2022/06/19 11:47:58;;;;;;;3.97;1.13;;;20.00;61.30;;;;;;4722323;30;20095;-77
2022/06/19 11:50:46;;;;;;;4.55;0.77;;;20.10;61.50;;;;;;4707309;30;20068;-77
2022/06/19 11:53:20;;;;;;;4.10;0.90;;;20.10;61.60;;;;;;4721451;30;20060;-76
2022/06/19 11:55:49;;;;;;;3.92;0.90;;;20.10;61.70;;;;;;4722545;30;20103;-76
2022/06/19 11:58:21;;;;;;;3.72;0.52;;;20.10;61.70;;;;;;4722186;30;20068;-78
2022/06/19 12:01:17;;;;;;;7.57;1.00;;;20.10;61.80;;;;;;4722163;30;20111;-75
2022/06/19 12:03:52;;;;;;;3.40;0.80;;;20.10;61.80;;;;;;4717461;30;20393;-77
2022/06/19 12:06:35;;;;;;;3.38;0.68;;;20.10;62.00;;;;;;4722306;30;20052;-78
2022/06/19 12:09:03;;;;;;;4.47;1.02;;;20.10;62.10;;;;;;4721545;30;20474;-76
2022/06/19 12:11:40;;;;;;;6.40;1.25;;;20.10;62.20;;;;;;4720463;30;20049;-79
2022/06/19 12:14:09;;;;;;;4.75;0.88;;;20.20;62.80;;;;;;4707242;30;20523;-75
2022/06/19 12:16:35;;;;;;;9.95;1.48;;;20.20;62.90;;;;;;4705079;30;20422;-78
2022/06/19 12:19:33;;;;;;;10.93;1.02;;;20.20;62.60;;;;;;4704234;30;20493;-77
2022/06/19 12:22:04;;;;;;;8.77;1.15;;;20.20;62.30;;;;;;4685473;30;20088;-75
2022/06/19 12:24:46;;;;;;;6.45;1.13;;;20.20;62.20;;;;;;4704138;30;20125;-77
2022/06/19 12:27:17;;;;;;;5.45;0.88;;;20.20;61.90;;;;;;4703994;30;20045;-80
2022/06/19 12:29:53;;;;;;;8.93;1.23;;;20.20;61.50;;;;;;4717903;30;20409;-78
2022/06/19 12:32:51;;;;;;;7.20;1.48;;;20.10;61.30;;;;;;4711695;30;20056;-77
2022/06/19 12:35:28;;;;;;;4.28;1.33;;;20.10;61.40;;;;;;4713351;30;20151;-77
2022/06/19 12:37:54;;;;;;;9.55;1.70;;;20.20;61.60;;;;;;4720777;30;20241;-75
2022/06/19 12:40:25;;;;;;;6.70;1.40;;;20.20;61.80;;;;;;4720605;30;20171;-77
2022/06/19 12:43:24;;;;;;;6.10;1.02;;;20.20;61.90;;;;;;4710120;30;20119;-73
2022/06/19 12:45:59;;;;;;;7.38;0.98;;;20.20;62.00;;;;;;4680522;30;20062;-73
2022/06/19 12:48:34;;;;;;;11.40;1.25;;;20.20;62.20;;;;;;4704021;30;20057;-76
2022/06/19 12:51:42;;;;;;;8.82;0.90;;;20.20;62.30;;;;;;4703628;30;20100;-74
2022/06/19 12:54:23;;;;;;;11.80;1.73;;;20.20;62.30;;;;;;4692965;30;20383;-74
2022/06/19 12:57:06;;;;;;;11.30;1.35;;;20.20;62.40;;;;;;4703807;30;20069;-75
2022/06/19 12:59:59;;;;;;;10.45;1.33;;;20.30;62.40;;;;;;4703935;30;20382;-74
2022/06/19 13:02:40;;;;;;;18.80;2.15;;;20.20;62.30;;;;;;4710608;30;20061;-73
2022/06/19 13:05:28;;;;;;;14.05;2.50;;;20.30;62.20;;;;;;4720431;30;20417;-76
2022/06/19 13:07:57;;;;;;;8.30;1.23;;;20.30;61.20;;;;;;4721167;30;20211;-74
2022/06/19 13:10:33;;;;;;;10.20;1.33;;;20.20;60.70;;;;;;4716559;30;20462;-75
2022/06/19 13:13:09;;;;;;;8.15;1.23;;;20.20;60.40;;;;;;4716205;30;20045;-77
2022/06/19 13:15:51;;;;;;;13.25;1.65;;;20.20;60.80;;;;;;4721078;30;20462;-73
2022/06/19 13:18:38;;;;;;;8.20;1.70;;;20.20;61.00;;;;;;4720788;30;20053;-72
2022/06/19 13:21:22;;;;;;;7.25;1.38;;;20.20;61.00;;;;;;4711623;30;20052;-72
2022/06/19 13:24:05;;;;;;;;;;;20.20;60.20;;;;;;4688935;30;20057;-72
2022/06/19 13:29:58;;;;;;;7.72;1.90;;;20.20;59.70;;;;;;4703572;30;20065;-74
2022/06/19 13:32:51;;;;;;;11.68;1.95;;;20.10;59.50;;;;;;4703370;30;20053;-73
2022/06/19 13:35:48;;;;;;;14.00;1.80;;;20.10;59.80;;;;;;4703557;30;20057;-73
2022/06/19 13:38:35;;;;;;;12.10;2.15;;;20.10;59.80;;;;;;4703647;30;20055;-74
2022/06/19 13:41:04;;;;;;;11.90;1.88;;;20.10;60.90;;;;;;4711870;30;20114;-75
2022/06/19 13:44:11;;;;;;;13.02;1.77;;;20.10;60.10;;;;;;4720632;30;20053;-74
2022/06/19 13:46:51;;;;;;;9.20;1.70;;;20.10;59.30;;;;;;4719639;30;20484;-75
2022/06/19 13:49:20;;;;;;;8.25;1.48;;;20.10;59.70;;;;;;4720489;30;20049;-74
2022/06/19 13:52:13;;;;;;;6.90;1.20;;;20.10;59.90;;;;;;4708556;30;20477;-75
2022/06/19 13:55:15;;;;;;;7.53;1.60;;;20.10;60.10;;;;;;4720557;30;20140;-75
2022/06/19 13:58:06;;;;;;;5.88;1.55;;;20.10;59.70;;;;;;4720573;30;20065;-74
2022/06/19 14:00:37;;;;;;;4.05;1.13;;;20.10;59.40;;;;;;4719524;30;20057;-74
2022/06/19 14:03:19;;;;;;;6.38;1.75;;;20.00;59.80;;;;;;4703485;30;20127;-75
2022/06/19 14:05:48;;;;;;;7.50;1.67;;;20.00;60.10;;;;;;4702743;30;20065;-74
2022/06/19 14:08:38;;;;;;;8.65;1.38;;;20.10;60.20;;;;;;4702129;30;20379;-75
2022/06/19 14:11:13;;;;;;;7.88;1.42;;;20.10;59.90;;;;;;4704317;30;20403;-73
2022/06/19 14:13:51;;;;;;;7.22;1.58;;;20.10;60.10;;;;;;4719620;30;20132;-73
2022/06/19 14:16:32;;;;;;;8.60;1.65;;;20.10;60.10;;;;;;4719989;30;20428;-74
2022/06/19 14:19:12;;;;;;;3.78;1.10;;;20.10;60.30;;;;;;4720200;30;20454;-74
2022/06/19 14:22:14;;;;;;;9.00;1.85;;;20.10;60.40;;;;;;4714306;30;20190;-75
2022/06/19 14:24:49;;;;;;;9.02;1.95;;;20.20;60.90;;;;;;4715633;30;20477;-74
2022/06/19 14:27:53;;;;;;;9.23;1.95;;;20.20;60.60;;;;;;4718600;30;20053;-75
2022/06/19 14:30:22;;;;;;;12.57;1.85;;;20.20;60.40;;;;;;4712382;30;20120;-78
2022/06/19 14:32:55;;;;;;;11.07;1.80;;;20.20;60.20;;;;;;4687235;30;20127;-77
2022/06/19 14:35:25;;;;;;;7.60;1.55;;;20.20;60.10;;;;;;4702230;30;20049;-82
2022/06/19 14:38:00;;;;;;;6.65;1.80;;;20.20;60.10;;;;;;4720007;30;20088;-81
2022/06/19 14:40:29;;;;;;;7.80;1.60;;;20.20;60.10;;;;;;4719513;30;20060;-82
2022/06/19 14:43:04;;;;;;;4.13;1.02;;;20.20;60.10;;;;;;4711323;30;20044;-79
2022/06/19 14:46:05;;;;;;;8.90;1.75;;;20.20;60.40;;;;;;4719748;30;20045;-80
2022/06/19 14:48:37;;;;;;;8.70;1.67;;;20.20;60.50;;;;;;4719591;30;20049;-81
2022/06/19 14:51:34;;;;;;;11.30;1.80;;;20.30;61.00;;;;;;4719259;30;20045;-78
2022/06/19 14:54:03;;;;;;;9.93;1.80;;;20.30;61.10;;;;;;4704512;30;20069;-79
2022/06/19 14:56:37;;;;;;;7.43;1.50;;;20.30;60.90;;;;;;4735948;30;20096;-78
2022/06/19 14:59:17;;;;;;;8.52;1.65;;;20.30;61.10;;;;;;4735977;30;20068;-78
2022/06/19 15:01:43;;;;;;;7.57;1.20;;;20.30;61.40;;;;;;4736752;30;20143;-78
2022/06/19 15:04:18;;;;;;;9.80;2.17;;;20.30;61.80;;;;;;4736888;30;20087;-79
2022/06/19 15:06:56;;;;;;;11.05;1.58;;;20.30;63.10;;;;;;4736993;30;20056;-84
2022/06/19 15:09:50;;;;;;;11.15;1.48;;;20.30;63.90;;;;;;4736628;30;20096;-85
2022/06/19 15:12:16;;;;;;;7.50;1.25;;;20.40;63.80;;;;;;4705174;30;20057;-85
2022/06/19 15:15:15;;;;;;;12.20;2.00;;;20.40;63.30;;;;;;4735944;30;20064;-82
2022/06/19 15:17:51;;;;;;;10.27;2.05;;;20.40;63.20;;;;;;4718713;30;20065;-82
2022/06/19 15:20:30;;;;;;;6.47;1.20;;;20.40;62.60;;;;;;4736276;30;20056;-82
2022/06/19 15:23:16;;;;;;;10.38;2.60;;;20.40;62.60;;;;;;4735954;30;20057;-84
2022/06/19 15:25:43;;;;;;;8.10;1.33;;;20.50;62.50;;;;;;4736014;30;20457;-83
2022/06/19 15:28:14;;;;;;;5.03;1.23;;;20.40;62.00;;;;;;4721232;30;20044;-83
2022/06/19 15:30:49;;;;;;;12.98;1.65;;;20.40;61.70;;;;;;4718159;30;20049;-82
2022/06/19 15:33:45;;;;;;;10.15;1.20;;;20.40;61.20;;;;;;4703577;30;20057;-85
2022/06/19 15:36:12;;;;;;;7.80;1.75;;;20.40;61.10;;;;;;4703369;30;20057;-84
2022/06/19 15:38:57;;;;;;;9.13;1.35;;;20.40;60.70;;;;;;4703743;30;20056;-82
2022/06/19 15:41:51;;;;;;;5.45;1.83;;;20.40;60.40;;;;;;4717950;30;20053;-83
2022/06/19 15:44:17;;;;;;;7.95;1.15;;;20.40;60.00;;;;;;4686966;30;20060;-83
2022/06/19 15:47:05;;;;;;;11.07;2.05;;;20.30;59.70;;;;;;4703714;30;20458;-84
2022/06/19 15:49:45;;;;;;;8.23;1.40;;;20.30;59.30;;;;;;4705814;30;20061;-82
2022/06/19 15:52:19;;;;;;;7.40;1.58;;;20.20;59.60;;;;;;4717948;30;20071;-83
2022/06/19 15:54:50;;;;;;;6.68;1.95;;;20.20;59.90;;;;;;4707101;30;20100;-86
2022/06/19 15:57:25;;;;;;;5.53;1.45;;;20.20;59.40;;;;;;4683342;30;20077;-87
2022/06/19 16:00:02;;;;;;;6.57;1.20;;;20.20;59.20;;;;;;4683179;30;20430;-85
2022/06/19 16:02:30;;;;;;;8.82;1.58;;;20.20;59.20;;;;;;4696226;30;20053;-82
2022/06/19 16:04:59;;;;;;;7.28;1.00;;;20.30;59.00;;;;;;4713009;30;20182;-88
2022/06/19 16:07:37;;;;;;;6.35;1.30;;;20.30;59.20;;;;;;4707750;30;20053;-79
2022/06/19 16:10:22;;;;;;;6.07;1.17;;;20.30;58.40;;;;;;4732531;30;20532;-80
2022/06/19 16:13:05;;;;;;;8.77;1.42;;;20.30;58.40;;;;;;4730236;30;20124;-87
2022/06/19 16:15:34;;;;;;;6.78;1.00;;;20.30;57.80;;;;;;4702975;30;20081;-83
2022/06/19 16:18:03;;;;;;;10.63;1.40;;;20.30;57.50;;;;;;4703356;30;20119;-80
2022/06/19 16:20:36;;;;;;;8.82;1.45;;;20.20;57.40;;;;;;4694259;30;20362;-80
2022/06/19 16:23:05;;;;;;;10.35;1.50;;;20.20;57.50;;;;;;4702785;30;20128;-81
2022/06/19 16:25:37;;;;;;;6.55;1.17;;;20.20;57.40;;;;;;4714421;30;20067;-82